N91HK KPBI-MYAM
Flight info
| Callsign | N91HK |
|---|---|
| Flight time | 0h 28m |
| Altitude | 21000 |
| Route | MIXAE4 HALBI DCT ZFP BR70V MRRSH |
| Aircraft | CL60/M-SADE3FGHIJ3J4J7P2RWXY/HB1D1 |
Departure
| Time | 2026-04-23 12:50 |
|---|---|
| Airport | Palm Beach International Airport (KPBI) |
Arrival
| Time | 2026-04-23 13:18 |
|---|---|
| Airport | Leonard M. Thompson International Airport (MYAM) |
| Time | Latitude | Longitude | Altitude | Speed | Heading |
|---|---|---|---|---|---|
| 2026-04-23 12:35 | 26.67944 | -80.09520 | 20 ft | 0 kts | 97° |
| 2026-04-23 12:46 | 26.67950 | -80.09502 | 21 ft | 6 kts | 37° |
| 2026-04-23 12:47 | 26.68006 | -80.09502 | 21 ft | 9 kts | 341° |
| 2026-04-23 12:47 | 26.68032 | -80.09579 | 21 ft | 13 kts | 270° |
| 2026-04-23 12:47 | 26.68038 | -80.09747 | 20 ft | 36 kts | 273° |
| 2026-04-23 12:47 | 26.68053 | -80.10069 | 21 ft | 38 kts | 273° |
| 2026-04-23 12:48 | 26.68063 | -80.10337 | 22 ft | 29 kts | 271° |
| 2026-04-23 12:48 | 26.68074 | -80.10490 | 22 ft | 13 kts | 278° |
| 2026-04-23 12:48 | 26.68074 | -80.10571 | 23 ft | 9 kts | 271° |
| 2026-04-23 12:48 | 26.68119 | -80.10622 | 23 ft | 14 kts | 2° |
| 2026-04-23 12:49 | 26.68205 | -80.10673 | 22 ft | 17 kts | 273° |
| 2026-04-23 12:49 | 26.68220 | -80.10815 | 24 ft | 19 kts | 312° |
| 2026-04-23 12:49 | 26.68321 | -80.10799 | 25 ft | 13 kts | 84° |
| 2026-04-23 12:49 | 26.68313 | -80.10656 | 23 ft | 44 kts | 94° |
| 2026-04-23 12:50 | 26.68282 | -80.09922 | 23 ft | 140 kts | 93° |
| 2026-04-23 12:50 | 26.68231 | -80.08624 | 435 ft | 185 kts | 85° |
| 2026-04-23 12:50 | 26.68593 | -80.07132 | 1065 ft | 209 kts | 75° |
| 2026-04-23 12:50 | 26.68995 | -80.05569 | 1418 ft | 204 kts | 75° |
| 2026-04-23 12:51 | 26.69356 | -80.04040 | 1466 ft | 201 kts | 78° |
| 2026-04-23 12:51 | 26.69703 | -80.02538 | 1539 ft | 196 kts | 77° |
| 2026-04-23 12:51 | 26.70055 | -80.01045 | 1634 ft | 196 kts | 77° |
| 2026-04-23 12:51 | 26.70575 | -79.99618 | 1736 ft | 199 kts | 63° |
| 2026-04-23 12:52 | 26.71333 | -79.98130 | 1962 ft | 242 kts | 66° |
| 2026-04-23 12:52 | 26.71613 | -79.96284 | 3183 ft | 251 kts | 96° |
| 2026-04-23 12:52 | 26.71371 | -79.94355 | 4511 ft | 256 kts | 99° |
| 2026-04-23 12:52 | 26.71117 | -79.92378 | 5729 ft | 265 kts | 99° |
| 2026-04-23 12:53 | 26.70857 | -79.90322 | 6472 ft | 273 kts | 99° |
| 2026-04-23 12:53 | 26.70592 | -79.88180 | 6817 ft | 275 kts | 99° |
| 2026-04-23 12:53 | 26.70336 | -79.86084 | 6909 ft | 275 kts | 99° |
| 2026-04-23 12:53 | 26.70079 | -79.83949 | 6915 ft | 273 kts | 98° |
| 2026-04-23 12:54 | 26.69827 | -79.81839 | 6916 ft | 273 kts | 98° |
| 2026-04-23 12:54 | 26.69575 | -79.79724 | 6888 ft | 272 kts | 98° |
| 2026-04-23 12:54 | 26.69326 | -79.77620 | 6886 ft | 271 kts | 98° |
| 2026-04-23 12:54 | 26.69077 | -79.75515 | 6880 ft | 270 kts | 98° |
| 2026-04-23 12:55 | 26.68833 | -79.73436 | 6886 ft | 270 kts | 98° |
| 2026-04-23 12:55 | 26.68581 | -79.71298 | 6968 ft | 285 kts | 98° |
| 2026-04-23 12:55 | 26.68321 | -79.69061 | 8103 ft | 295 kts | 98° |
| 2026-04-23 12:55 | 26.68059 | -79.66833 | 9579 ft | 291 kts | 97° |
| 2026-04-23 12:56 | 26.67794 | -79.64548 | 10519 ft | 307 kts | 96° |
| 2026-04-23 12:56 | 26.67694 | -79.61970 | 10586 ft | 351 kts | 90° |
| 2026-04-23 12:56 | 26.67681 | -79.59126 | 11023 ft | 377 kts | 90° |
| 2026-04-23 12:56 | 26.67659 | -79.56113 | 11751 ft | 391 kts | 90° |
| 2026-04-23 12:57 | 26.67637 | -79.53024 | 12582 ft | 399 kts | 90° |
| 2026-04-23 12:57 | 26.67614 | -79.49858 | 13415 ft | 407 kts | 90° |
| 2026-04-23 12:57 | 26.67591 | -79.46665 | 14229 ft | 414 kts | 90° |
| 2026-04-23 12:57 | 26.67568 | -79.43411 | 14990 ft | 422 kts | 90° |
| 2026-04-23 12:58 | 26.67545 | -79.40118 | 15792 ft | 428 kts | 90° |
| 2026-04-23 12:58 | 26.67522 | -79.36728 | 16544 ft | 435 kts | 90° |
| 2026-04-23 12:58 | 26.67500 | -79.33349 | 17242 ft | 441 kts | 91° |
| 2026-04-23 12:58 | 26.67477 | -79.29884 | 17900 ft | 448 kts | 91° |
| 2026-04-23 12:59 | 26.67454 | -79.26379 | 18583 ft | 453 kts | 91° |
| 2026-04-23 12:59 | 26.67430 | -79.22858 | 19274 ft | 457 kts | 91° |
| 2026-04-23 12:59 | 26.67405 | -79.19247 | 19908 ft | 463 kts | 91° |
| 2026-04-23 12:59 | 26.67343 | -79.15620 | 20475 ft | 468 kts | 95° |
| 2026-04-23 13:00 | 26.66885 | -79.11990 | 20941 ft | 475 kts | 104° |
| 2026-04-23 13:00 | 26.66028 | -79.08426 | 21125 ft | 487 kts | 109° |
| 2026-04-23 13:00 | 26.64980 | -79.04780 | 21157 ft | 498 kts | 110° |
| 2026-04-23 13:00 | 26.63915 | -79.01080 | 21174 ft | 500 kts | 110° |
| 2026-04-23 13:01 | 26.62846 | -78.97330 | 21186 ft | 497 kts | 110° |
| 2026-04-23 13:01 | 26.61801 | -78.93648 | 21183 ft | 495 kts | 109° |
| 2026-04-23 13:01 | 26.60766 | -78.89982 | 21186 ft | 494 kts | 109° |
| 2026-04-23 13:01 | 26.59726 | -78.86288 | 21189 ft | 495 kts | 109° |
| 2026-04-23 13:02 | 26.58687 | -78.82586 | 21189 ft | 495 kts | 109° |
| 2026-04-23 13:02 | 26.57654 | -78.78895 | 21193 ft | 495 kts | 109° |
| 2026-04-23 13:02 | 26.56630 | -78.75233 | 21186 ft | 495 kts | 109° |
| 2026-04-23 13:02 | 26.55616 | -78.71536 | 21190 ft | 495 kts | 107° |
| 2026-04-23 13:03 | 26.55120 | -78.67744 | 21245 ft | 496 kts | 94° |
| 2026-04-23 13:03 | 26.55017 | -78.63893 | 21205 ft | 499 kts | 92° |
| 2026-04-23 13:03 | 26.54914 | -78.59964 | 21188 ft | 497 kts | 92° |
| 2026-04-23 13:03 | 26.54815 | -78.56160 | 21190 ft | 495 kts | 92° |
| 2026-04-23 13:04 | 26.54714 | -78.52259 | 21190 ft | 495 kts | 92° |
| 2026-04-23 13:04 | 26.54615 | -78.48408 | 21185 ft | 496 kts | 92° |
| 2026-04-23 13:04 | 26.54516 | -78.44544 | 21175 ft | 496 kts | 92° |
| 2026-04-23 13:04 | 26.54417 | -78.40710 | 21115 ft | 493 kts | 92° |
| 2026-04-23 13:05 | 26.54316 | -78.36927 | 20651 ft | 477 kts | 92° |
| 2026-04-23 13:05 | 26.54226 | -78.33301 | 20087 ft | 463 kts | 92° |
| 2026-04-23 13:05 | 26.54137 | -78.29686 | 19509 ft | 450 kts | 92° |
| 2026-04-23 13:05 | 26.54053 | -78.26231 | 18909 ft | 438 kts | 92° |
| 2026-04-23 13:06 | 26.53893 | -78.19621 | 17771 ft | 418 kts | 92° |
| 2026-04-23 13:06 | 26.53813 | -78.16393 | 17118 ft | 412 kts | 92° |
| 2026-04-23 13:06 | 26.53735 | -78.13197 | 16532 ft | 406 kts | 92° |
| 2026-04-23 13:07 | 26.53655 | -78.10037 | 15966 ft | 403 kts | 92° |
| 2026-04-23 13:07 | 26.53574 | -78.06898 | 15425 ft | 397 kts | 92° |
| 2026-04-23 13:07 | 26.53494 | -78.03818 | 14901 ft | 393 kts | 92° |
| 2026-04-23 13:07 | 26.53413 | -78.00784 | 14376 ft | 389 kts | 92° |
| 2026-04-23 13:08 | 26.53332 | -77.97761 | 13858 ft | 383 kts | 92° |
| 2026-04-23 13:08 | 26.53253 | -77.94827 | 13363 ft | 379 kts | 92° |
| 2026-04-23 13:08 | 26.53173 | -77.91906 | 12858 ft | 372 kts | 93° |
| 2026-04-23 13:08 | 26.53093 | -77.88996 | 12360 ft | 365 kts | 93° |
| 2026-04-23 13:09 | 26.52969 | -77.86183 | 11870 ft | 356 kts | 94° |
| 2026-04-23 13:09 | 26.52830 | -77.83451 | 11397 ft | 348 kts | 94° |
| 2026-04-23 13:09 | 26.52693 | -77.80742 | 10924 ft | 340 kts | 94° |
| 2026-04-23 13:09 | 26.52563 | -77.78157 | 10484 ft | 332 kts | 94° |
| 2026-04-23 13:10 | 26.52430 | -77.75550 | 10039 ft | 328 kts | 94° |
| 2026-04-23 13:10 | 26.52300 | -77.72999 | 9603 ft | 329 kts | 94° |
| 2026-04-23 13:10 | 26.52168 | -77.70448 | 9167 ft | 327 kts | 94° |
| 2026-04-23 13:10 | 26.52036 | -77.67929 | 8734 ft | 324 kts | 94° |
| 2026-04-23 13:11 | 26.51905 | -77.65434 | 8309 ft | 322 kts | 94° |
| 2026-04-23 13:11 | 26.51771 | -77.62911 | 7873 ft | 319 kts | 94° |
| 2026-04-23 13:11 | 26.51641 | -77.60442 | 7451 ft | 318 kts | 94° |
| 2026-04-23 13:11 | 26.51509 | -77.57976 | 7032 ft | 315 kts | 94° |
| 2026-04-23 13:12 | 26.51379 | -77.55545 | 6615 ft | 312 kts | 94° |
| 2026-04-23 13:12 | 26.51249 | -77.53133 | 6203 ft | 309 kts | 94° |
| 2026-04-23 13:12 | 26.51120 | -77.50754 | 5793 ft | 307 kts | 94° |
| 2026-04-23 13:12 | 26.50990 | -77.48359 | 5382 ft | 304 kts | 94° |
| 2026-04-23 13:13 | 26.50863 | -77.46015 | 4982 ft | 301 kts | 94° |
| 2026-04-23 13:13 | 26.50735 | -77.43665 | 4581 ft | 299 kts | 94° |
| 2026-04-23 13:13 | 26.50608 | -77.41351 | 4183 ft | 296 kts | 94° |
| 2026-04-23 13:13 | 26.50482 | -77.39053 | 3791 ft | 293 kts | 94° |
| 2026-04-23 13:14 | 26.50357 | -77.36775 | 3401 ft | 291 kts | 94° |
| 2026-04-23 13:14 | 26.50230 | -77.34498 | 3006 ft | 294 kts | 95° |
| 2026-04-23 13:14 | 26.50102 | -77.32217 | 2617 ft | 295 kts | 95° |
| 2026-04-23 13:14 | 26.50003 | -77.29916 | 2313 ft | 290 kts | 91° |
| 2026-04-23 13:15 | 26.50213 | -77.27737 | 2280 ft | 264 kts | 83° |
| 2026-04-23 13:15 | 26.50415 | -77.25781 | 2268 ft | 242 kts | 87° |
| 2026-04-23 13:15 | 26.50515 | -77.23975 | 2264 ft | 222 kts | 89° |
| 2026-04-23 13:15 | 26.50581 | -77.22288 | 2165 ft | 209 kts | 89° |
| 2026-04-23 13:16 | 26.50633 | -77.20674 | 1894 ft | 204 kts | 90° |
| 2026-04-23 13:16 | 26.50678 | -77.19094 | 1643 ft | 200 kts | 90° |
| 2026-04-23 13:16 | 26.50721 | -77.17546 | 1384 ft | 196 kts | 90° |
| 2026-04-23 13:16 | 26.50762 | -77.16037 | 1110 ft | 188 kts | 90° |
| 2026-04-23 13:17 | 26.50799 | -77.14649 | 872 ft | 161 kts | 89° |
| 2026-04-23 13:17 | 26.50834 | -77.13512 | 684 ft | 137 kts | 89° |
| 2026-04-23 13:17 | 26.50863 | -77.12511 | 505 ft | 122 kts | 89° |
| 2026-04-23 13:17 | 26.50894 | -77.11564 | 338 ft | 120 kts | 88° |
| 2026-04-23 13:18 | 26.50944 | -77.10646 | 181 ft | 117 kts | 88° |
| 2026-04-23 13:18 | 26.50981 | -77.09750 | 59 ft | 115 kts | 88° |
| 2026-04-23 13:18 | 26.51005 | -77.08871 | 14 ft | 99 kts | 88° |
| 2026-04-23 13:18 | 26.51015 | -77.08530 | 17 ft | 3 kts | 61° |
| 2026-04-23 13:19 | 26.51053 | -77.08526 | 17 ft | 7 kts | 355° |
| 2026-04-23 13:19 | 26.51122 | -77.08527 | 16 ft | 11 kts | 20° |
| 2026-04-23 13:19 | 26.51140 | -77.08440 | 17 ft | 8 kts | 72° |
| 2026-04-23 13:19 | 26.51238 | -77.08423 | 16 ft | 24 kts | 356° |
| 2026-04-23 13:20 | 26.51333 | -77.08422 | 15 ft | 8 kts | 62° |
| 2026-04-23 13:20 | 26.51335 | -77.08400 | 15 ft | 0 kts | 90° |